sensor_id;sensor_type;location;lat;lon;timestamp;P1;durP1;ratioP1;P2;durP2;ratioP2
75488;SDS011;64069;46.396;48.102;2023-03-14T00:01:58;2.15;;;1.00;;
75488;SDS011;64069;46.396;48.102;2023-03-14T00:04:24;2.85;;;1.00;;
75488;SDS011;64069;46.396;48.102;2023-03-14T00:06:50;4.70;;;1.15;;
75488;SDS011;64069;46.396;48.102;2023-03-14T00:09:16;1.88;;;1.10;;
75488;SDS011;64069;46.396;48.102;2023-03-14T00:11:42;1.38;;;0.80;;
75488;SDS011;64069;46.396;48.102;2023-03-14T00:14:08;2.70;;;0.90;;
75488;SDS011;64069;46.396;48.102;2023-03-14T00:16:34;1.65;;;0.80;;
75488;SDS011;64069;46.396;48.102;2023-03-14T00:19:00;1.23;;;0.90;;
75488;SDS011;64069;46.396;48.102;2023-03-14T00:21:26;2.25;;;0.90;;
75488;SDS011;64069;46.396;48.102;2023-03-14T00:23:52;1.85;;;1.10;;
75488;SDS011;64069;46.396;48.102;2023-03-14T00:26:19;2.38;;;1.25;;
75488;SDS011;64069;46.396;48.102;2023-03-14T00:28:46;2.30;;;0.90;;
75488;SDS011;64069;46.396;48.102;2023-03-14T00:31:16;2.45;;;1.00;;
75488;SDS011;64069;46.396;48.102;2023-03-14T00:33:42;2.42;;;0.90;;
75488;SDS011;64069;46.396;48.102;2023-03-14T00:36:11;1.90;;;1.00;;
75488;SDS011;64069;46.396;48.102;2023-03-14T00:38:39;1.77;;;1.00;;
75488;SDS011;64069;46.396;48.102;2023-03-14T00:41:07;2.08;;;1.00;;
75488;SDS011;64069;46.396;48.102;2023-03-14T00:43:38;2.17;;;1.00;;
75488;SDS011;64069;46.396;48.102;2023-03-14T00:46:04;2.67;;;1.25;;
75488;SDS011;64069;46.396;48.102;2023-03-14T00:48:31;1.88;;;0.90;;
75488;SDS011;64069;46.396;48.102;2023-03-14T00:50:57;3.28;;;1.13;;
75488;SDS011;64069;46.396;48.102;2023-03-14T00:53:23;2.40;;;1.00;;
75488;SDS011;64069;46.396;48.102;2023-03-14T00:55:49;2.60;;;1.00;;
75488;SDS011;64069;46.396;48.102;2023-03-14T00:58:17;2.05;;;1.10;;
75488;SDS011;64069;46.396;48.102;2023-03-14T01:00:44;1.60;;;0.90;;
75488;SDS011;64069;46.396;48.102;2023-03-14T01:03:11;2.45;;;1.20;;
75488;SDS011;64069;46.396;48.102;2023-03-14T01:05:38;3.13;;;0.93;;
75488;SDS011;64069;46.396;48.102;2023-03-14T01:08:05;2.38;;;0.90;;
75488;SDS011;64069;46.396;48.102;2023-03-14T01:10:33;4.32;;;1.08;;
75488;SDS011;64069;46.396;48.102;2023-03-14T01:13:04;2.55;;;1.17;;
75488;SDS011;64069;46.396;48.102;2023-03-14T01:15:31;1.63;;;0.80;;
75488;SDS011;64069;46.396;48.102;2023-03-14T01:17:58;3.40;;;1.20;;
75488;SDS011;64069;46.396;48.102;2023-03-14T01:20:24;1.77;;;1.10;;
75488;SDS011;64069;46.396;48.102;2023-03-14T01:22:49;2.35;;;1.00;;
75488;SDS011;64069;46.396;48.102;2023-03-14T01:25:16;3.25;;;0.82;;
75488;SDS011;64069;46.396;48.102;2023-03-14T01:27:43;1.77;;;0.85;;
75488;SDS011;64069;46.396;48.102;2023-03-14T01:30:10;1.95;;;1.00;;
75488;SDS011;64069;46.396;48.102;2023-03-14T01:32:38;2.00;;;1.02;;
75488;SDS011;64069;46.396;48.102;2023-03-14T01:35:04;1.15;;;0.80;;
75488;SDS011;64069;46.396;48.102;2023-03-14T01:37:32;1.85;;;0.90;;
75488;SDS011;64069;46.396;48.102;2023-03-14T01:39:58;2.72;;;0.80;;
75488;SDS011;64069;46.396;48.102;2023-03-14T01:42:24;1.27;;;0.73;;
75488;SDS011;64069;46.396;48.102;2023-03-14T01:44:54;1.15;;;0.82;;
75488;SDS011;64069;46.396;48.102;2023-03-14T01:47:21;1.38;;;0.90;;
75488;SDS011;64069;46.396;48.102;2023-03-14T01:52:40;2.13;;;1.00;;
75488;SDS011;64069;46.396;48.102;2023-03-14T01:55:15;1.75;;;1.00;;
75488;SDS011;64069;46.396;48.102;2023-03-14T01:57:46;1.77;;;0.93;;
75488;SDS011;64069;46.396;48.102;2023-03-14T02:00:17;2.70;;;0.85;;
75488;SDS011;64069;46.396;48.102;2023-03-14T02:02:49;4.15;;;1.20;;
75488;SDS011;64069;46.396;48.102;2023-03-14T02:05:20;1.65;;;1.08;;
75488;SDS011;64069;46.396;48.102;2023-03-14T02:08:02;1.85;;;0.90;;
75488;SDS011;64069;46.396;48.102;2023-03-14T02:10:37;2.03;;;0.95;;
75488;SDS011;64069;46.396;48.102;2023-03-14T02:13:08;9.02;;;1.15;;
75488;SDS011;64069;46.396;48.102;2023-03-14T02:15:55;3.22;;;1.02;;
75488;SDS011;64069;46.396;48.102;2023-03-14T02:18:53;4.38;;;1.20;;
75488;SDS011;64069;46.396;48.102;2023-03-14T02:21:42;2.67;;;0.82;;
75488;SDS011;64069;46.396;48.102;2023-03-14T02:24:25;3.88;;;1.60;;
75488;SDS011;64069;46.396;48.102;2023-03-14T02:29:49;2.60;;;1.00;;
75488;SDS011;64069;46.396;48.102;2023-03-14T02:32:16;2.92;;;1.20;;
75488;SDS011;64069;46.396;48.102;2023-03-14T02:34:43;1.77;;;0.90;;
75488;SDS011;64069;46.396;48.102;2023-03-14T02:37:13;3.53;;;1.48;;
75488;SDS011;64069;46.396;48.102;2023-03-14T02:39:43;5.13;;;1.10;;
75488;SDS011;64069;46.396;48.102;2023-03-14T02:42:12;4.32;;;1.00;;
75488;SDS011;64069;46.396;48.102;2023-03-14T02:44:49;3.20;;;1.30;;
75488;SDS011;64069;46.396;48.102;2023-03-14T02:47:22;4.13;;;1.17;;
75488;SDS011;64069;46.396;48.102;2023-03-14T02:49:53;6.00;;;1.60;;
75488;SDS011;64069;46.396;48.102;2023-03-14T02:52:26;3.75;;;1.10;;
75488;SDS011;64069;46.396;48.102;2023-03-14T02:54:52;4.82;;;1.30;;
75488;SDS011;64069;46.396;48.102;2023-03-14T02:57:18;2.13;;;1.30;;
75488;SDS011;64069;46.396;48.102;2023-03-14T02:59:44;7.10;;;1.30;;
75488;SDS011;64069;46.396;48.102;2023-03-14T03:02:15;3.67;;;1.20;;
75488;SDS011;64069;46.396;48.102;2023-03-14T03:04:41;6.07;;;1.50;;
75488;SDS011;64069;46.396;48.102;2023-03-14T03:07:07;4.20;;;1.27;;
75488;SDS011;64069;46.396;48.102;2023-03-14T03:09:33;2.13;;;1.30;;
75488;SDS011;64069;46.396;48.102;2023-03-14T03:11:59;3.15;;;1.35;;
75488;SDS011;64069;46.396;48.102;2023-03-14T03:14:27;2.47;;;1.33;;
75488;SDS011;64069;46.396;48.102;2023-03-14T03:16:56;4.95;;;1.40;;
75488;SDS011;64069;46.396;48.102;2023-03-14T03:19:22;5.28;;;1.00;;
75488;SDS011;64069;46.396;48.102;2023-03-14T03:21:48;10.55;;;1.60;;
75488;SDS011;64069;46.396;48.102;2023-03-14T03:24:14;2.42;;;1.40;;
75488;SDS011;64069;46.396;48.102;2023-03-14T03:26:41;3.28;;;1.30;;
75488;SDS011;64069;46.396;48.102;2023-03-14T03:29:09;4.68;;;1.40;;
75488;SDS011;64069;46.396;48.102;2023-03-14T03:31:36;3.92;;;1.25;;
75488;SDS011;64069;46.396;48.102;2023-03-14T03:34:03;11.25;;;1.73;;
75488;SDS011;64069;46.396;48.102;2023-03-14T03:36:29;5.30;;;1.35;;
75488;SDS011;64069;46.396;48.102;2023-03-14T03:38:58;5.00;;;2.58;;
75488;SDS011;64069;46.396;48.102;2023-03-14T03:41:24;3.58;;;1.38;;
75488;SDS011;64069;46.396;48.102;2023-03-14T03:43:50;8.07;;;2.22;;
75488;SDS011;64069;46.396;48.102;2023-03-14T03:46:17;3.03;;;1.20;;
75488;SDS011;64069;46.396;48.102;2023-03-14T03:48:43;3.88;;;1.42;;
75488;SDS011;64069;46.396;48.102;2023-03-14T03:51:11;6.28;;;1.67;;
75488;SDS011;64069;46.396;48.102;2023-03-14T03:53:42;3.25;;;1.30;;
75488;SDS011;64069;46.396;48.102;2023-03-14T03:56:11;6.50;;;1.48;;
75488;SDS011;64069;46.396;48.102;2023-03-14T03:58:39;4.85;;;1.58;;
75488;SDS011;64069;46.396;48.102;2023-03-14T04:01:06;3.28;;;1.75;;
75488;SDS011;64069;46.396;48.102;2023-03-14T04:03:32;5.28;;;1.65;;
75488;SDS011;64069;46.396;48.102;2023-03-14T04:06:03;4.82;;;1.45;;
75488;SDS011;64069;46.396;48.102;2023-03-14T04:08:32;5.30;;;1.67;;
75488;SDS011;64069;46.396;48.102;2023-03-14T04:10:58;5.88;;;2.22;;
75488;SDS011;64069;46.396;48.102;2023-03-14T04:13:44;5.93;;;1.60;;
75488;SDS011;64069;46.396;48.102;2023-03-14T04:16:15;5.15;;;1.40;;
75488;SDS011;64069;46.396;48.102;2023-03-14T04:18:43;3.38;;;1.40;;
75488;SDS011;64069;46.396;48.102;2023-03-14T04:21:09;3.60;;;1.38;;
75488;SDS011;64069;46.396;48.102;2023-03-14T04:23:43;3.65;;;1.00;;
75488;SDS011;64069;46.396;48.102;2023-03-14T04:26:10;3.08;;;1.60;;
75488;SDS011;64069;46.396;48.102;2023-03-14T04:28:36;3.25;;;1.23;;
75488;SDS011;64069;46.396;48.102;2023-03-14T04:31:10;4.95;;;1.80;;
75488;SDS011;64069;46.396;48.102;2023-03-14T04:33:38;4.18;;;1.13;;
75488;SDS011;64069;46.396;48.102;2023-03-14T04:36:06;9.68;;;2.00;;
75488;SDS011;64069;46.396;48.102;2023-03-14T04:38:34;3.15;;;1.52;;
75488;SDS011;64069;46.396;48.102;2023-03-14T04:41:00;6.85;;;1.50;;
75488;SDS011;64069;46.396;48.102;2023-03-14T04:43:30;4.47;;;1.55;;
75488;SDS011;64069;46.396;48.102;2023-03-14T04:46:15;3.60;;;1.48;;
75488;SDS011;64069;46.396;48.102;2023-03-14T04:48:42;4.75;;;1.67;;
75488;SDS011;64069;46.396;48.102;2023-03-14T04:51:08;2.63;;;1.30;;
75488;SDS011;64069;46.396;48.102;2023-03-14T04:53:35;5.00;;;1.27;;
75488;SDS011;64069;46.396;48.102;2023-03-14T04:56:05;3.53;;;1.95;;
75488;SDS011;64069;46.396;48.102;2023-03-14T04:58:36;3.70;;;1.17;;
75488;SDS011;64069;46.396;48.102;2023-03-14T05:01:04;3.35;;;1.23;;
75488;SDS011;64069;46.396;48.102;2023-03-14T05:04:05;4.43;;;1.27;;
75488;SDS011;64069;46.396;48.102;2023-03-14T05:06:54;2.30;;;1.38;;
75488;SDS011;64069;46.396;48.102;2023-03-14T05:09:34;6.15;;;1.38;;
75488;SDS011;64069;46.396;48.102;2023-03-14T05:12:09;5.95;;;1.20;;
75488;SDS011;64069;46.396;48.102;2023-03-14T05:14:55;2.60;;;1.15;;
75488;SDS011;64069;46.396;48.102;2023-03-14T05:17:54;4.35;;;1.15;;
75488;SDS011;64069;46.396;48.102;2023-03-14T05:20:38;6.45;;;1.10;;
75488;SDS011;64069;46.396;48.102;2023-03-14T05:23:42;3.13;;;1.08;;
75488;SDS011;64069;46.396;48.102;2023-03-14T05:26:30;2.03;;;1.15;;
75488;SDS011;64069;46.396;48.102;2023-03-14T05:29:16;4.60;;;1.17;;
75488;SDS011;64069;46.396;48.102;2023-03-14T05:31:52;1.65;;;1.02;;
75488;SDS011;64069;46.396;48.102;2023-03-14T05:34:29;7.18;;;1.30;;
75488;SDS011;64069;46.396;48.102;2023-03-14T05:37:08;6.97;;;1.83;;
75488;SDS011;64069;46.396;48.102;2023-03-14T05:39:48;8.68;;;1.92;;
75488;SDS011;64069;46.396;48.102;2023-03-14T05:42:37;1.40;;;0.95;;
75488;SDS011;64069;46.396;48.102;2023-03-14T05:45:21;6.55;;;1.20;;
75488;SDS011;64069;46.396;48.102;2023-03-14T05:48:08;2.50;;;1.38;;
75488;SDS011;64069;46.396;48.102;2023-03-14T05:50:54;5.07;;;1.35;;
75488;SDS011;64069;46.396;48.102;2023-03-14T05:53:39;2.58;;;1.40;;
75488;SDS011;64069;46.396;48.102;2023-03-14T05:56:35;2.50;;;1.00;;
75488;SDS011;64069;46.396;48.102;2023-03-14T05:59:35;1.05;;;0.85;;
75488;SDS011;64069;46.396;48.102;2023-03-14T06:02:01;4.15;;;1.00;;
75488;SDS011;64069;46.396;48.102;2023-03-14T06:04:35;2.58;;;1.10;;
75488;SDS011;64069;46.396;48.102;2023-03-14T06:07:04;2.50;;;0.95;;
75488;SDS011;64069;46.396;48.102;2023-03-14T06:09:30;1.55;;;0.80;;
75488;SDS011;64069;46.396;48.102;2023-03-14T06:11:59;1.30;;;0.88;;
75488;SDS011;64069;46.396;48.102;2023-03-14T06:14:28;7.43;;;1.20;;
75488;SDS011;64069;46.396;48.102;2023-03-14T06:16:54;1.88;;;0.85;;
75488;SDS011;64069;46.396;48.102;2023-03-14T06:19:21;1.35;;;1.02;;
75488;SDS011;64069;46.396;48.102;2023-03-14T06:21:49;4.45;;;1.17;;
75488;SDS011;64069;46.396;48.102;2023-03-14T06:24:15;1.83;;;0.70;;
75488;SDS011;64069;46.396;48.102;2023-03-14T06:26:46;3.15;;;0.90;;
75488;SDS011;64069;46.396;48.102;2023-03-14T06:29:12;2.47;;;1.05;;
75488;SDS011;64069;46.396;48.102;2023-03-14T06:31:39;1.75;;;1.00;;
75488;SDS011;64069;46.396;48.102;2023-03-14T06:34:07;3.25;;;1.05;;
75488;SDS011;64069;46.396;48.102;2023-03-14T06:36:33;2.08;;;0.98;;
75488;SDS011;64069;46.396;48.102;2023-03-14T06:38:59;2.45;;;1.10;;
75488;SDS011;64069;46.396;48.102;2023-03-14T06:41:27;2.78;;;0.93;;
75488;SDS011;64069;46.396;48.102;2023-03-14T06:43:58;2.75;;;1.10;;
75488;SDS011;64069;46.396;48.102;2023-03-14T06:46:25;3.03;;;1.00;;
75488;SDS011;64069;46.396;48.102;2023-03-14T06:48:52;2.75;;;0.85;;
75488;SDS011;64069;46.396;48.102;2023-03-14T06:51:19;1.85;;;0.90;;
75488;SDS011;64069;46.396;48.102;2023-03-14T06:53:46;4.78;;;1.10;;
75488;SDS011;64069;46.396;48.102;2023-03-14T06:56:16;2.60;;;0.95;;
75488;SDS011;64069;46.396;48.102;2023-03-14T06:58:42;1.70;;;0.73;;
75488;SDS011;64069;46.396;48.102;2023-03-14T07:01:20;3.45;;;1.10;;
75488;SDS011;64069;46.396;48.102;2023-03-14T07:03:52;6.60;;;1.13;;
75488;SDS011;64069;46.396;48.102;2023-03-14T07:06:20;9.00;;;1.58;;
75488;SDS011;64069;46.396;48.102;2023-03-14T07:08:47;7.05;;;1.73;;
75488;SDS011;64069;46.396;48.102;2023-03-14T07:11:15;8.60;;;2.00;;
75488;SDS011;64069;46.396;48.102;2023-03-14T07:13:41;6.43;;;1.13;;
75488;SDS011;64069;46.396;48.102;2023-03-14T07:16:07;10.30;;;2.13;;
75488;SDS011;64069;46.396;48.102;2023-03-14T07:18:35;15.65;;;3.00;;
75488;SDS011;64069;46.396;48.102;2023-03-14T07:21:04;1.80;;;0.82;;
75488;SDS011;64069;46.396;48.102;2023-03-14T07:23:31;3.08;;;1.20;;
75488;SDS011;64069;46.396;48.102;2023-03-14T07:25:58;7.32;;;1.00;;
75488;SDS011;64069;46.396;48.102;2023-03-14T07:28:25;2.70;;;0.70;;
75488;SDS011;64069;46.396;48.102;2023-03-14T07:31:00;4.45;;;0.90;;
75488;SDS011;64069;46.396;48.102;2023-03-14T07:33:30;5.32;;;1.23;;
75488;SDS011;64069;46.396;48.102;2023-03-14T07:35:57;3.22;;;1.00;;
75488;SDS011;64069;46.396;48.102;2023-03-14T07:38:23;1.42;;;0.85;;
75488;SDS011;64069;46.396;48.102;2023-03-14T07:41:06;2.63;;;0.98;;
75488;SDS011;64069;46.396;48.102;2023-03-14T07:43:36;3.08;;;1.10;;
75488;SDS011;64069;46.396;48.102;2023-03-14T07:46:02;1.50;;;0.93;;
75488;SDS011;64069;46.396;48.102;2023-03-14T07:48:28;2.08;;;1.00;;
75488;SDS011;64069;46.396;48.102;2023-03-14T07:50:55;8.05;;;0.90;;
75488;SDS011;64069;46.396;48.102;2023-03-14T07:53:21;1.80;;;1.00;;
75488;SDS011;64069;46.396;48.102;2023-03-14T07:55:47;4.35;;;0.90;;
75488;SDS011;64069;46.396;48.102;2023-03-14T07:58:14;1.33;;;0.70;;
75488;SDS011;64069;46.396;48.102;2023-03-14T08:00:40;3.83;;;1.08;;
75488;SDS011;64069;46.396;48.102;2023-03-14T08:03:06;7.07;;;1.88;;
75488;SDS011;64069;46.396;48.102;2023-03-14T08:05:36;2.65;;;0.80;;
75488;SDS011;64069;46.396;48.102;2023-03-14T08:08:03;2.47;;;0.95;;
75488;SDS011;64069;46.396;48.102;2023-03-14T08:10:29;6.25;;;1.65;;
75488;SDS011;64069;46.396;48.102;2023-03-14T08:13:01;2.47;;;1.15;;
75488;SDS011;64069;46.396;48.102;2023-03-14T08:15:28;2.15;;;0.60;;
75488;SDS011;64069;46.396;48.102;2023-03-14T08:17:55;1.58;;;0.50;;
75488;SDS011;64069;46.396;48.102;2023-03-14T08:20:21;2.67;;;0.63;;
75488;SDS011;64069;46.396;48.102;2023-03-14T08:22:55;3.45;;;0.90;;
75488;SDS011;64069;46.396;48.102;2023-03-14T08:25:25;3.80;;;0.75;;
75488;SDS011;64069;46.396;48.102;2023-03-14T08:27:52;2.10;;;1.00;;
75488;SDS011;64069;46.396;48.102;2023-03-14T08:30:19;1.35;;;0.98;;
75488;SDS011;64069;46.396;48.102;2023-03-14T08:32:46;1.73;;;0.80;;
75488;SDS011;64069;46.396;48.102;2023-03-14T08:35:12;1.30;;;0.73;;
75488;SDS011;64069;46.396;48.102;2023-03-14T08:37:39;0.57;;;0.43;;
75488;SDS011;64069;46.396;48.102;2023-03-14T08:40:05;4.25;;;0.98;;
75488;SDS011;64069;46.396;48.102;2023-03-14T08:42:32;2.40;;;0.45;;
75488;SDS011;64069;46.396;48.102;2023-03-14T08:44:59;1.27;;;0.68;;
75488;SDS011;64069;46.396;48.102;2023-03-14T08:47:25;3.92;;;0.65;;
75488;SDS011;64069;46.396;48.102;2023-03-14T08:49:55;1.75;;;0.70;;
75488;SDS011;64069;46.396;48.102;2023-03-14T08:52:21;0.93;;;0.50;;
75488;SDS011;64069;46.396;48.102;2023-03-14T08:54:47;1.42;;;0.50;;
75488;SDS011;64069;46.396;48.102;2023-03-14T08:57:13;7.85;;;0.80;;
75488;SDS011;64069;46.396;48.102;2023-03-14T08:59:39;3.95;;;0.60;;
75488;SDS011;64069;46.396;48.102;2023-03-14T09:02:05;3.55;;;0.75;;
75488;SDS011;64069;46.396;48.102;2023-03-14T09:04:31;1.83;;;0.63;;
75488;SDS011;64069;46.396;48.102;2023-03-14T09:06:58;3.67;;;0.80;;
75488;SDS011;64069;46.396;48.102;2023-03-14T09:09:25;7.32;;;0.73;;
75488;SDS011;64069;46.396;48.102;2023-03-14T09:11:54;17.08;;;1.70;;
75488;SDS011;64069;46.396;48.102;2023-03-14T09:14:19;3.30;;;0.70;;
75488;SDS011;64069;46.396;48.102;2023-03-14T09:16:45;1.27;;;0.57;;
75488;SDS011;64069;46.396;48.102;2023-03-14T09:19:11;4.70;;;1.00;;
75488;SDS011;64069;46.396;48.102;2023-03-14T09:21:37;2.92;;;0.80;;
75488;SDS011;64069;46.396;48.102;2023-03-14T09:24:04;3.50;;;0.90;;
75488;SDS011;64069;46.396;48.102;2023-03-14T09:26:30;1.38;;;0.60;;
75488;SDS011;64069;46.396;48.102;2023-03-14T09:28:56;1.50;;;0.57;;
75488;SDS011;64069;46.396;48.102;2023-03-14T09:31:22;4.85;;;0.60;;
75488;SDS011;64069;46.396;48.102;2023-03-14T09:33:48;2.75;;;1.00;;
75488;SDS011;64069;46.396;48.102;2023-03-14T09:36:14;1.10;;;0.80;;
75488;SDS011;64069;46.396;48.102;2023-03-14T09:38:40;0.60;;;0.50;;
75488;SDS011;64069;46.396;48.102;2023-03-14T09:41:16;2.97;;;0.90;;
75488;SDS011;64069;46.396;48.102;2023-03-14T09:43:46;3.78;;;1.58;;
75488;SDS011;64069;46.396;48.102;2023-03-14T09:46:16;3.22;;;1.25;;
75488;SDS011;64069;46.396;48.102;2023-03-14T09:48:43;4.68;;;0.90;;
75488;SDS011;64069;46.396;48.102;2023-03-14T09:51:13;2.92;;;1.13;;
75488;SDS011;64069;46.396;48.102;2023-03-14T09:53:43;1.98;;;1.08;;
75488;SDS011;64069;46.396;48.102;2023-03-14T09:56:32;5.78;;;1.10;;
75488;SDS011;64069;46.396;48.102;2023-03-14T09:58:58;3.70;;;0.90;;
75488;SDS011;64069;46.396;48.102;2023-03-14T10:01:31;2.72;;;1.00;;
75488;SDS011;64069;46.396;48.102;2023-03-14T10:04:02;13.90;;;1.50;;
75488;SDS011;64069;46.396;48.102;2023-03-14T10:06:32;10.93;;;1.90;;
75488;SDS011;64069;46.396;48.102;2023-03-14T10:09:00;8.65;;;1.30;;
75488;SDS011;64069;46.396;48.102;2023-03-14T10:11:27;9.40;;;1.00;;
75488;SDS011;64069;46.396;48.102;2023-03-14T10:16:30;1.33;;;0.60;;
75488;SDS011;64069;46.396;48.102;2023-03-14T10:19:09;7.85;;;0.80;;
75488;SDS011;64069;46.396;48.102;2023-03-14T10:21:44;2.42;;;0.73;;
75488;SDS011;64069;46.396;48.102;2023-03-14T10:24:31;7.25;;;1.00;;
75488;SDS011;64069;46.396;48.102;2023-03-14T10:27:06;2.13;;;0.98;;
75488;SDS011;64069;46.396;48.102;2023-03-14T10:29:53;4.03;;;0.80;;
75488;SDS011;64069;46.396;48.102;2023-03-14T10:32:23;2.53;;;0.80;;
75488;SDS011;64069;46.396;48.102;2023-03-14T10:37:54;0.50;;;0.40;;
75488;SDS011;64069;46.396;48.102;2023-03-14T10:40:31;1.42;;;0.70;;
75488;SDS011;64069;46.396;48.102;2023-03-14T10:42:59;2.63;;;0.70;;
75488;SDS011;64069;46.396;48.102;2023-03-14T10:45:31;5.40;;;0.88;;
75488;SDS011;64069;46.396;48.102;2023-03-14T10:48:35;1.77;;;0.75;;
75488;SDS011;64069;46.396;48.102;2023-03-14T10:51:10;4.20;;;0.70;;
75488;SDS011;64069;46.396;48.102;2023-03-14T10:53:45;3.28;;;0.88;;
75488;SDS011;64069;46.396;48.102;2023-03-14T10:56:17;2.03;;;0.50;;
75488;SDS011;64069;46.396;48.102;2023-03-14T10:58:45;1.27;;;0.68;;
75488;SDS011;64069;46.396;48.102;2023-03-14T11:15:05;7.25;;;1.10;;
75488;SDS011;64069;46.396;48.102;2023-03-14T11:20:45;8.95;;;1.40;;
75488;SDS011;64069;46.396;48.102;2023-03-14T11:26:01;4.88;;;0.80;;
75488;SDS011;64069;46.396;48.102;2023-03-14T11:28:39;2.00;;;0.90;;
75488;SDS011;64069;46.396;48.102;2023-03-14T11:36:21;1.90;;;0.70;;
75488;SDS011;64069;46.396;48.102;2023-03-14T11:38:50;3.65;;;1.13;;
75488;SDS011;64069;46.396;48.102;2023-03-14T11:41:25;8.00;;;1.30;;
75488;SDS011;64069;46.396;48.102;2023-03-14T11:44:05;4.22;;;0.93;;
75488;SDS011;64069;46.396;48.102;2023-03-14T11:46:41;2.78;;;0.90;;
75488;SDS011;64069;46.396;48.102;2023-03-14T11:55:13;2.08;;;0.88;;
75488;SDS011;64069;46.396;48.102;2023-03-14T11:58:01;10.60;;;5.07;;
75488;SDS011;64069;46.396;48.102;2023-03-14T12:00:42;2.25;;;1.08;;
75488;SDS011;64069;46.396;48.102;2023-03-14T12:03:17;1.45;;;0.73;;
75488;SDS011;64069;46.396;48.102;2023-03-14T12:05:46;6.00;;;1.27;;
75488;SDS011;64069;46.396;48.102;2023-03-14T12:11:05;6.03;;;2.00;;
75488;SDS011;64069;46.396;48.102;2023-03-14T12:13:57;18.35;;;6.50;;
75488;SDS011;64069;46.396;48.102;2023-03-14T12:18:49;17.90;;;5.95;;
75488;SDS011;64069;46.396;48.102;2023-03-14T12:21:16;10.88;;;2.90;;
75488;SDS011;64069;46.396;48.102;2023-03-14T12:23:48;11.60;;;3.78;;
75488;SDS011;64069;46.396;48.102;2023-03-14T12:26:19;3.65;;;1.40;;
75488;SDS011;64069;46.396;48.102;2023-03-14T12:28:50;7.97;;;0.98;;
75488;SDS011;64069;46.396;48.102;2023-03-14T12:31:43;8.15;;;1.55;;
75488;SDS011;64069;46.396;48.102;2023-03-14T12:42:08;6.60;;;1.85;;
75488;SDS011;64069;46.396;48.102;2023-03-14T12:44:44;6.75;;;2.80;;
75488;SDS011;64069;46.396;48.102;2023-03-14T12:49:43;7.93;;;1.15;;
75488;SDS011;64069;46.396;48.102;2023-03-14T12:52:38;4.72;;;1.38;;
75488;SDS011;64069;46.396;48.102;2023-03-14T12:55:41;2.95;;;1.20;;
75488;SDS011;64069;46.396;48.102;2023-03-14T12:58:38;2.80;;;1.00;;
75488;SDS011;64069;46.396;48.102;2023-03-14T13:01:27;2.05;;;0.80;;
75488;SDS011;64069;46.396;48.102;2023-03-14T13:03:57;6.50;;;1.75;;
75488;SDS011;64069;46.396;48.102;2023-03-14T13:06:47;2.65;;;1.30;;
75488;SDS011;64069;46.396;48.102;2023-03-14T13:11:54;3.55;;;1.40;;
75488;SDS011;64069;46.396;48.102;2023-03-14T13:14:22;7.78;;;1.80;;
75488;SDS011;64069;46.396;48.102;2023-03-14T13:16:49;6.43;;;2.00;;
75488;SDS011;64069;46.396;48.102;2023-03-14T13:19:33;7.57;;;2.60;;
75488;SDS011;64069;46.396;48.102;2023-03-14T13:22:01;7.90;;;2.55;;
75488;SDS011;64069;46.396;48.102;2023-03-14T13:24:29;4.53;;;1.70;;
75488;SDS011;64069;46.396;48.102;2023-03-14T13:26:59;2.88;;;0.95;;
75488;SDS011;64069;46.396;48.102;2023-03-14T13:29:29;4.53;;;1.10;;
75488;SDS011;64069;46.396;48.102;2023-03-14T13:31:58;3.65;;;1.65;;
75488;SDS011;64069;46.396;48.102;2023-03-14T13:34:26;25.95;;;5.05;;
75488;SDS011;64069;46.396;48.102;2023-03-14T13:36:55;16.23;;;4.22;;
75488;SDS011;64069;46.396;48.102;2023-03-14T13:39:24;20.83;;;6.75;;
75488;SDS011;64069;46.396;48.102;2023-03-14T13:41:54;7.85;;;2.70;;
75488;SDS011;64069;46.396;48.102;2023-03-14T13:44:27;7.38;;;3.40;;
75488;SDS011;64069;46.396;48.102;2023-03-14T13:47:05;8.30;;;3.20;;
75488;SDS011;64069;46.396;48.102;2023-03-14T13:49:37;7.78;;;2.53;;
75488;SDS011;64069;46.396;48.102;2023-03-14T13:52:19;5.55;;;1.98;;
75488;SDS011;64069;46.396;48.102;2023-03-14T13:54:57;4.72;;;2.28;;
75488;SDS011;64069;46.396;48.102;2023-03-14T13:57:25;5.10;;;1.92;;
75488;SDS011;64069;46.396;48.102;2023-03-14T13:59:59;10.10;;;3.45;;
75488;SDS011;64069;46.396;48.102;2023-03-14T14:02:42;6.80;;;2.28;;
75488;SDS011;64069;46.396;48.102;2023-03-14T14:05:10;8.93;;;2.42;;
75488;SDS011;64069;46.396;48.102;2023-03-14T14:07:37;8.77;;;2.13;;
75488;SDS011;64069;46.396;48.102;2023-03-14T14:10:04;5.97;;;2.00;;
75488;SDS011;64069;46.396;48.102;2023-03-14T14:12:35;6.75;;;2.58;;
75488;SDS011;64069;46.396;48.102;2023-03-14T14:18:02;7.65;;;2.10;;
75488;SDS011;64069;46.396;48.102;2023-03-14T14:20:35;12.82;;;3.05;;
75488;SDS011;64069;46.396;48.102;2023-03-14T14:23:05;10.63;;;3.03;;
75488;SDS011;64069;46.396;48.102;2023-03-14T14:25:48;8.68;;;3.25;;
75488;SDS011;64069;46.396;48.102;2023-03-14T14:28:17;12.55;;;3.47;;
75488;SDS011;64069;46.396;48.102;2023-03-14T14:30:59;10.80;;;2.33;;
75488;SDS011;64069;46.396;48.102;2023-03-14T14:33:25;5.38;;;1.75;;
75488;SDS011;64069;46.396;48.102;2023-03-14T14:35:55;12.35;;;2.97;;
75488;SDS011;64069;46.396;48.102;2023-03-14T14:38:23;10.13;;;3.50;;
75488;SDS011;64069;46.396;48.102;2023-03-14T14:40:51;12.73;;;3.78;;
75488;SDS011;64069;46.396;48.102;2023-03-14T14:43:22;16.30;;;4.85;;
75488;SDS011;64069;46.396;48.102;2023-03-14T14:45:52;12.85;;;4.15;;
75488;SDS011;64069;46.396;48.102;2023-03-14T14:48:22;12.60;;;3.72;;
75488;SDS011;64069;46.396;48.102;2023-03-14T14:51:00;13.87;;;4.47;;
75488;SDS011;64069;46.396;48.102;2023-03-14T14:56:16;15.85;;;4.43;;
75488;SDS011;64069;46.396;48.102;2023-03-14T14:58:55;23.85;;;7.07;;
75488;SDS011;64069;46.396;48.102;2023-03-14T15:01:23;24.58;;;7.60;;
75488;SDS011;64069;46.396;48.102;2023-03-14T15:03:58;26.25;;;8.68;;
75488;SDS011;64069;46.396;48.102;2023-03-14T15:06:25;25.05;;;9.95;;
75488;SDS011;64069;46.396;48.102;2023-03-14T15:08:54;26.00;;;8.98;;
75488;SDS011;64069;46.396;48.102;2023-03-14T15:11:21;29.15;;;8.50;;
75488;SDS011;64069;46.396;48.102;2023-03-14T15:13:49;34.58;;;11.02;;
75488;SDS011;64069;46.396;48.102;2023-03-14T15:16:22;27.35;;;10.70;;
75488;SDS011;64069;46.396;48.102;2023-03-14T15:18:57;32.03;;;11.55;;
75488;SDS011;64069;46.396;48.102;2023-03-14T15:21:24;31.58;;;11.65;;
75488;SDS011;64069;46.396;48.102;2023-03-14T15:23:52;43.97;;;18.00;;
75488;SDS011;64069;46.396;48.102;2023-03-14T15:26:19;38.35;;;17.67;;
75488;SDS011;64069;46.396;48.102;2023-03-14T15:28:56;26.63;;;13.52;;
75488;SDS011;64069;46.396;48.102;2023-03-14T15:31:22;20.05;;;9.85;;
75488;SDS011;64069;46.396;48.102;2023-03-14T15:33:49;18.38;;;8.80;;
75488;SDS011;64069;46.396;48.102;2023-03-14T15:36:23;17.30;;;9.10;;
75488;SDS011;64069;46.396;48.102;2023-03-14T15:38:51;22.02;;;7.60;;
75488;SDS011;64069;46.396;48.102;2023-03-14T15:41:19;15.65;;;7.18;;
75488;SDS011;64069;46.396;48.102;2023-03-14T15:43:46;16.65;;;6.88;;
75488;SDS011;64069;46.396;48.102;2023-03-14T15:46:12;18.10;;;6.15;;
75488;SDS011;64069;46.396;48.102;2023-03-14T15:48:40;15.52;;;6.35;;
75488;SDS011;64069;46.396;48.102;2023-03-14T15:51:06;15.48;;;5.28;;
75488;SDS011;64069;46.396;48.102;2023-03-14T15:53:34;19.75;;;6.22;;
75488;SDS011;64069;46.396;48.102;2023-03-14T15:56:07;16.75;;;6.13;;
75488;SDS011;64069;46.396;48.102;2023-03-14T15:58:37;22.50;;;8.15;;
75488;SDS011;64069;46.396;48.102;2023-03-14T16:01:08;23.58;;;9.52;;
75488;SDS011;64069;46.396;48.102;2023-03-14T16:03:34;26.55;;;12.38;;